sensor_id;sensor_type;location;lat;lon;timestamp;pressure;altitude;pressure_sealevel;temperature;humidity
68141;BME280;54941;52.220;104.306;2023-05-08T00:00:33;96944.22;;;14.80;31.55
68141;BME280;54941;52.220;104.306;2023-05-08T00:02:59;96948.78;;;15.92;29.94
68141;BME280;54941;52.220;104.306;2023-05-08T00:05:26;96940.50;;;16.26;29.06
68141;BME280;54941;52.220;104.306;2023-05-08T00:07:54;96944.19;;;15.69;29.69
68141;BME280;54941;52.220;104.306;2023-05-08T00:10:20;96940.88;;;15.89;29.52
68141;BME280;54941;52.220;104.306;2023-05-08T00:12:46;96945.38;;;15.59;30.35
68141;BME280;54941;52.220;104.306;2023-05-08T00:15:12;96936.47;;;16.39;29.05
68141;BME280;54941;52.220;104.306;2023-05-08T00:17:39;96943.34;;;16.71;29.02
68141;BME280;54941;52.220;104.306;2023-05-08T00:20:06;96941.88;;;16.38;29.02
68141;BME280;54941;52.220;104.306;2023-05-08T00:22:32;96941.28;;;17.03;28.22
68141;BME280;54941;52.220;104.306;2023-05-08T00:25:00;96950.63;;;16.68;28.39
68141;BME280;54941;52.220;104.306;2023-05-08T00:27:26;96945.19;;;16.44;28.52
68141;BME280;54941;52.220;104.306;2023-05-08T00:29:53;96944.78;;;17.05;27.42
68141;BME280;54941;52.220;104.306;2023-05-08T00:32:19;96938.75;;;18.11;26.23
68141;BME280;54941;52.220;104.306;2023-05-08T00:34:45;96937.53;;;17.97;26.28
68141;BME280;54941;52.220;104.306;2023-05-08T00:37:12;96928.50;;;18.42;25.48
68141;BME280;54941;52.220;104.306;2023-05-08T00:39:38;96937.44;;;17.10;27.10
68141;BME280;54941;52.220;104.306;2023-05-08T00:42:06;96941.78;;;18.84;25.85
68141;BME280;54941;52.220;104.306;2023-05-08T00:44:32;96938.00;;;18.70;25.21
68141;BME280;54941;52.220;104.306;2023-05-08T00:46:59;96932.72;;;19.83;24.08
68141;BME280;54941;52.220;104.306;2023-05-08T00:49:25;96940.03;;;19.41;24.23
68141;BME280;54941;52.220;104.306;2023-05-08T00:51:53;96939.78;;;18.89;24.96
68141;BME280;54941;52.220;104.306;2023-05-08T00:54:20;96933.81;;;18.83;25.25
68141;BME280;54941;52.220;104.306;2023-05-08T00:56:48;96938.06;;;19.07;24.68
68141;BME280;54941;52.220;104.306;2023-05-08T00:59:19;96924.25;;;19.16;24.61
68141;BME280;54941;52.220;104.306;2023-05-08T01:01:46;96940.69;;;18.70;24.94
68141;BME280;54941;52.220;104.306;2023-05-08T01:04:14;96931.03;;;20.33;23.40
68141;BME280;54941;52.220;104.306;2023-05-08T01:06:40;96930.03;;;20.00;23.27
68141;BME280;54941;52.220;104.306;2023-05-08T01:09:06;96934.91;;;20.45;23.14
68141;BME280;54941;52.220;104.306;2023-05-08T01:11:36;96935.66;;;19.95;23.58
68141;BME280;54941;52.220;104.306;2023-05-08T01:14:11;96930.75;;;19.48;24.54
68141;BME280;54941;52.220;104.306;2023-05-08T01:16:44;96927.88;;;19.15;24.58
68141;BME280;54941;52.220;104.306;2023-05-08T01:19:31;96937.94;;;17.43;27.21
68141;BME280;54941;52.220;104.306;2023-05-08T01:22:10;96935.31;;;19.28;24.51
68141;BME280;54941;52.220;104.306;2023-05-08T01:25:02;96929.69;;;18.55;25.38
68141;BME280;54941;52.220;104.306;2023-05-08T01:28:07;96933.41;;;18.92;25.74
68141;BME280;54941;52.220;104.306;2023-05-08T01:31:00;96926.81;;;19.57;24.56
68141;BME280;54941;52.220;104.306;2023-05-08T01:33:32;96925.03;;;19.18;25.08
68141;BME280;54941;52.220;104.306;2023-05-08T01:36:15;96922.63;;;19.88;24.20
68141;BME280;54941;52.220;104.306;2023-05-08T01:38:55;96920.31;;;20.16;23.58
68141;BME280;54941;52.220;104.306;2023-05-08T01:41:25;96926.31;;;20.73;23.65
68141;BME280;54941;52.220;104.306;2023-05-08T01:43:58;96927.50;;;21.49;22.50
68141;BME280;54941;52.220;104.306;2023-05-08T01:46:31;96921.44;;;21.62;22.27
68141;BME280;54941;52.220;104.306;2023-05-08T01:49:04;96925.34;;;21.40;22.52
68141;BME280;54941;52.220;104.306;2023-05-08T01:51:37;96910.66;;;22.09;21.80
68141;BME280;54941;52.220;104.306;2023-05-08T01:54:06;96905.41;;;23.10;21.04
68141;BME280;54941;52.220;104.306;2023-05-08T01:56:34;96902.06;;;22.02;21.81
68141;BME280;54941;52.220;104.306;2023-05-08T01:59:04;96914.53;;;21.09;22.95
68141;BME280;54941;52.220;104.306;2023-05-08T02:01:32;96911.00;;;21.24;22.79
68141;BME280;54941;52.220;104.306;2023-05-08T02:04:02;96904.34;;;22.40;21.47
68141;BME280;54941;52.220;104.306;2023-05-08T02:06:31;96900.53;;;22.58;20.97
68141;BME280;54941;52.220;104.306;2023-05-08T02:08:59;96895.69;;;22.35;21.19
68141;BME280;54941;52.220;104.306;2023-05-08T02:11:27;96895.16;;;22.73;21.04
68141;BME280;54941;52.220;104.306;2023-05-08T02:13:57;96892.00;;;23.37;20.77
68141;BME280;54941;52.220;104.306;2023-05-08T02:16:25;96899.31;;;21.41;21.98
68141;BME280;54941;52.220;104.306;2023-05-08T02:18:54;96899.38;;;24.03;19.36
68141;BME280;54941;52.220;104.306;2023-05-08T02:21:24;96895.34;;;23.69;19.93
68141;BME280;54941;52.220;104.306;2023-05-08T02:23:52;96891.63;;;22.42;20.96
68141;BME280;54941;52.220;104.306;2023-05-08T02:26:19;96894.84;;;23.07;20.72
68141;BME280;54941;52.220;104.306;2023-05-08T02:28:47;96884.63;;;22.09;21.23
68141;BME280;54941;52.220;104.306;2023-05-08T02:31:15;96895.50;;;23.11;19.99
68141;BME280;54941;52.220;104.306;2023-05-08T02:33:42;96885.47;;;24.36;18.79
68141;BME280;54941;52.220;104.306;2023-05-08T02:36:12;96886.00;;;22.47;20.67
68141;BME280;54941;52.220;104.306;2023-05-08T02:38:43;96885.63;;;22.67;20.53
68141;BME280;54941;52.220;104.306;2023-05-08T02:41:11;96889.47;;;23.77;19.76
68141;BME280;54941;52.220;104.306;2023-05-08T02:43:38;96881.84;;;24.23;18.86
68141;BME280;54941;52.220;104.306;2023-05-08T02:46:10;96887.28;;;23.41;20.33
68141;BME280;54941;52.220;104.306;2023-05-08T02:48:40;96885.00;;;22.92;19.74
68141;BME280;54941;52.220;104.306;2023-05-08T02:51:17;96887.72;;;23.76;18.79
68141;BME280;54941;52.220;104.306;2023-05-08T02:53:47;96882.47;;;23.46;18.82
68141;BME280;54941;52.220;104.306;2023-05-08T02:56:20;96884.75;;;24.85;17.76
68141;BME280;54941;52.220;104.306;2023-05-08T02:58:56;96880.88;;;23.70;19.32
68141;BME280;54941;52.220;104.306;2023-05-08T03:01:27;96883.47;;;22.88;19.51
68141;BME280;54941;52.220;104.306;2023-05-08T03:04:00;96890.25;;;22.79;19.69
68141;BME280;54941;52.220;104.306;2023-05-08T03:06:32;96883.25;;;23.62;18.74
68141;BME280;54941;52.220;104.306;2023-05-08T03:09:02;96885.69;;;24.33;17.78
68141;BME280;54941;52.220;104.306;2023-05-08T03:11:35;96881.47;;;23.75;17.55
68141;BME280;54941;52.220;104.306;2023-05-08T03:14:05;96882.22;;;22.93;18.44
68141;BME280;54941;52.220;104.306;2023-05-08T03:16:36;96870.66;;;25.44;16.75
68141;BME280;54941;52.220;104.306;2023-05-08T03:19:06;96875.50;;;23.70;18.21
68141;BME280;54941;52.220;104.306;2023-05-08T03:21:35;96875.13;;;24.43;17.46
68141;BME280;54941;52.220;104.306;2023-05-08T03:24:06;96870.06;;;23.29;17.89
68141;BME280;54941;52.220;104.306;2023-05-08T03:26:34;96878.63;;;24.31;18.20
68141;BME280;54941;52.220;104.306;2023-05-08T03:29:01;96875.81;;;23.51;18.15
68141;BME280;54941;52.220;104.306;2023-05-08T03:31:31;96870.34;;;23.39;19.52
68141;BME280;54941;52.220;104.306;2023-05-08T03:33:58;96871.53;;;23.20;19.54
68141;BME280;54941;52.220;104.306;2023-05-08T03:36:25;96865.66;;;22.99;18.71
68141;BME280;54941;52.220;104.306;2023-05-08T03:38:51;96861.16;;;23.55;17.34
68141;BME280;54941;52.220;104.306;2023-05-08T03:41:19;96861.25;;;24.08;17.34
68141;BME280;54941;52.220;104.306;2023-05-08T03:43:46;96861.44;;;23.65;17.89
68141;BME280;54941;52.220;104.306;2023-05-08T03:46:13;96856.41;;;24.00;16.09
68141;BME280;54941;52.220;104.306;2023-05-08T03:48:40;96848.28;;;25.66;14.78
68141;BME280;54941;52.220;104.306;2023-05-08T03:51:07;96856.59;;;23.70;16.81
68141;BME280;54941;52.220;104.306;2023-05-08T03:53:34;96861.94;;;23.84;16.40
68141;BME280;54941;52.220;104.306;2023-05-08T03:56:01;96855.31;;;24.03;16.28
68141;BME280;54941;52.220;104.306;2023-05-08T03:58:33;96859.34;;;23.83;16.62
68141;BME280;54941;52.220;104.306;2023-05-08T04:01:07;96851.34;;;23.54;16.91
68141;BME280;54941;52.220;104.306;2023-05-08T04:03:40;96829.44;;;23.73;15.45
68141;BME280;54941;52.220;104.306;2023-05-08T04:06:20;96840.66;;;22.97;15.82
68141;BME280;54941;52.220;104.306;2023-05-08T04:08:52;96839.47;;;23.57;15.09
68141;BME280;54941;52.220;104.306;2023-05-08T04:11:33;96833.03;;;23.60;15.54
68141;BME280;54941;52.220;104.306;2023-05-08T04:14:04;96830.03;;;23.09;16.09
68141;BME280;54941;52.220;104.306;2023-05-08T04:16:35;96830.63;;;24.09;14.85
68141;BME280;54941;52.220;104.306;2023-05-08T04:19:08;96828.53;;;23.05;16.59
68141;BME280;54941;52.220;104.306;2023-05-08T04:21:36;96827.13;;;22.69;15.62
68141;BME280;54941;52.220;104.306;2023-05-08T04:24:07;96825.50;;;22.66;16.53
68141;BME280;54941;52.220;104.306;2023-05-08T04:26:35;96813.09;;;22.50;16.52
68141;BME280;54941;52.220;104.306;2023-05-08T04:29:04;96812.91;;;22.53;16.42
68141;BME280;54941;52.220;104.306;2023-05-08T04:31:32;96809.34;;;22.52;15.02
68141;BME280;54941;52.220;104.306;2023-05-08T04:33:59;96799.44;;;23.10;14.90
68141;BME280;54941;52.220;104.306;2023-05-08T04:36:26;96795.81;;;22.09;16.62
68141;BME280;54941;52.220;104.306;2023-05-08T04:38:55;96797.81;;;22.50;16.04
68141;BME280;54941;52.220;104.306;2023-05-08T04:41:22;96794.81;;;22.26;16.40
68141;BME280;54941;52.220;104.306;2023-05-08T04:43:49;96794.44;;;21.72;16.56
68141;BME280;54941;52.220;104.306;2023-05-08T04:46:17;96790.16;;;21.54;16.46
68141;BME280;54941;52.220;104.306;2023-05-08T04:48:43;96788.41;;;21.53;16.84
68141;BME280;54941;52.220;104.306;2023-05-08T04:51:10;96776.13;;;21.33;17.05
68141;BME280;54941;52.220;104.306;2023-05-08T04:53:36;96772.78;;;22.20;16.61
68141;BME280;54941;52.220;104.306;2023-05-08T04:56:03;96771.84;;;22.49;17.04
68141;BME280;54941;52.220;104.306;2023-05-08T04:58:29;96758.75;;;22.71;17.38
68141;BME280;54941;52.220;104.306;2023-05-08T05:00:55;96768.28;;;22.49;16.09
68141;BME280;54941;52.220;104.306;2023-05-08T05:03:23;96757.88;;;22.14;16.33
68141;BME280;54941;52.220;104.306;2023-05-08T05:05:56;96760.09;;;21.62;16.33
68141;BME280;54941;52.220;104.306;2023-05-08T05:08:23;96753.66;;;21.80;17.36
68141;BME280;54941;52.220;104.306;2023-05-08T05:10:49;96745.25;;;22.00;16.61
68141;BME280;54941;52.220;104.306;2023-05-08T05:13:15;96743.19;;;21.90;16.57
68141;BME280;54941;52.220;104.306;2023-05-08T05:15:42;96743.44;;;21.71;16.55
68141;BME280;54941;52.220;104.306;2023-05-08T05:18:08;96742.97;;;21.48;16.98
68141;BME280;54941;52.220;104.306;2023-05-08T05:20:36;96738.09;;;21.85;17.22
68141;BME280;54941;52.220;104.306;2023-05-08T05:23:02;96729.69;;;21.31;17.83
68141;BME280;54941;52.220;104.306;2023-05-08T05:25:28;96731.91;;;21.69;17.76
68141;BME280;54941;52.220;104.306;2023-05-08T05:27:55;96728.72;;;21.62;17.60
68141;BME280;54941;52.220;104.306;2023-05-08T05:30:21;96720.97;;;21.42;17.47
68141;BME280;54941;52.220;104.306;2023-05-08T05:32:47;96717.00;;;22.07;17.57
68141;BME280;54941;52.220;104.306;2023-05-08T05:35:14;96706.44;;;22.33;17.38
68141;BME280;54941;52.220;104.306;2023-05-08T05:37:41;96710.66;;;22.08;17.65
68141;BME280;54941;52.220;104.306;2023-05-08T05:40:08;96699.75;;;21.51;17.92
68141;BME280;54941;52.220;104.306;2023-05-08T05:42:35;96694.22;;;22.56;17.56
68141;BME280;54941;52.220;104.306;2023-05-08T05:45:01;96693.16;;;22.44;17.16
68141;BME280;54941;52.220;104.306;2023-05-08T05:47:28;96697.91;;;21.68;17.54
68141;BME280;54941;52.220;104.306;2023-05-08T05:49:54;96695.06;;;21.99;17.61
68141;BME280;54941;52.220;104.306;2023-05-08T05:52:23;96696.41;;;21.92;18.09
68141;BME280;54941;52.220;104.306;2023-05-08T05:54:50;96677.00;;;22.01;17.79
68141;BME280;54941;52.220;104.306;2023-05-08T05:57:17;96681.44;;;22.31;17.56
68141;BME280;54941;52.220;104.306;2023-05-08T05:59:43;96677.22;;;22.41;17.16
68141;BME280;54941;52.220;104.306;2023-05-08T06:02:09;96687.78;;;22.01;17.80
68141;BME280;54941;52.220;104.306;2023-05-08T06:04:35;96680.94;;;21.96;17.76
68141;BME280;54941;52.220;104.306;2023-05-08T06:07:02;96667.03;;;21.89;18.00
68141;BME280;54941;52.220;104.306;2023-05-08T06:09:28;96667.97;;;22.02;18.34
68141;BME280;54941;52.220;104.306;2023-05-08T06:11:56;96667.03;;;21.89;18.04
68141;BME280;54941;52.220;104.306;2023-05-08T06:14:22;96661.13;;;21.82;18.49
68141;BME280;54941;52.220;104.306;2023-05-08T06:16:48;96661.56;;;21.46;18.56
68141;BME280;54941;52.220;104.306;2023-05-08T06:19:15;96661.69;;;21.73;18.31
68141;BME280;54941;52.220;104.306;2023-05-08T06:21:41;96656.53;;;21.40;18.52
68141;BME280;54941;52.220;104.306;2023-05-08T06:24:07;96655.09;;;21.35;18.71
68141;BME280;54941;52.220;104.306;2023-05-08T06:26:34;96648.59;;;21.53;18.49
68141;BME280;54941;52.220;104.306;2023-05-08T06:29:01;96646.31;;;21.61;18.69
68141;BME280;54941;52.220;104.306;2023-05-08T06:31:28;96644.13;;;21.68;18.75
68141;BME280;54941;52.220;104.306;2023-05-08T06:33:54;96638.84;;;21.95;18.67
68141;BME280;54941;52.220;104.306;2023-05-08T06:36:20;96633.47;;;21.66;18.70
68141;BME280;54941;52.220;104.306;2023-05-08T06:38:47;96637.06;;;21.21;19.59
68141;BME280;54941;52.220;104.306;2023-05-08T06:41:13;96627.84;;;21.11;19.63
68141;BME280;54941;52.220;104.306;2023-05-08T06:43:39;96624.25;;;21.70;19.01
68141;BME280;54941;52.220;104.306;2023-05-08T06:46:07;96620.25;;;21.33;19.56
68141;BME280;54941;52.220;104.306;2023-05-08T06:48:33;96624.84;;;21.15;19.35
68141;BME280;54941;52.220;104.306;2023-05-08T06:51:00;96614.50;;;21.09;19.75
68141;BME280;54941;52.220;104.306;2023-05-08T06:53:27;96606.44;;;20.93;19.60
68141;BME280;54941;52.220;104.306;2023-05-08T06:55:53;96608.13;;;20.96;19.98
68141;BME280;54941;52.220;104.306;2023-05-08T06:58:19;96616.06;;;21.43;19.56
68141;BME280;54941;52.220;104.306;2023-05-08T07:00:46;96615.31;;;21.55;20.11
68141;BME280;54941;52.220;104.306;2023-05-08T07:03:13;96601.19;;;21.66;20.08
68141;BME280;54941;52.220;104.306;2023-05-08T07:05:40;96612.81;;;21.22;20.56
68141;BME280;54941;52.220;104.306;2023-05-08T07:08:06;96603.94;;;21.36;20.77
68141;BME280;54941;52.220;104.306;2023-05-08T07:13:35;96597.41;;;21.40;21.17
68141;BME280;54941;52.220;104.306;2023-05-08T07:16:01;96586.09;;;21.64;21.07
68141;BME280;54941;52.220;104.306;2023-05-08T07:18:29;96587.66;;;21.68;21.12
68141;BME280;54941;52.220;104.306;2023-05-08T07:20:55;96579.78;;;21.79;21.30
68141;BME280;54941;52.220;104.306;2023-05-08T07:23:21;96584.00;;;21.54;21.95
68141;BME280;54941;52.220;104.306;2023-05-08T07:25:48;96587.75;;;21.66;21.98
68141;BME280;54941;52.220;104.306;2023-05-08T07:28:14;96580.75;;;21.78;21.94
68141;BME280;54941;52.220;104.306;2023-05-08T07:30:40;96581.88;;;21.45;23.01
68141;BME280;54941;52.220;104.306;2023-05-08T07:33:06;96583.63;;;20.86;23.62
68141;BME280;54941;52.220;104.306;2023-05-08T07:35:36;96571.47;;;21.39;23.25
68141;BME280;54941;52.220;104.306;2023-05-08T07:38:02;96571.47;;;21.39;23.78
68141;BME280;54941;52.220;104.306;2023-05-08T07:40:29;96573.00;;;21.29;24.52
68141;BME280;54941;52.220;104.306;2023-05-08T07:42:55;96567.97;;;21.09;25.33
68141;BME280;54941;52.220;104.306;2023-05-08T07:45:21;96565.50;;;21.20;24.90
68141;BME280;54941;52.220;104.306;2023-05-08T07:47:48;96563.09;;;21.30;25.89
68141;BME280;54941;52.220;104.306;2023-05-08T07:50:15;96567.09;;;21.08;25.95
68141;BME280;54941;52.220;104.306;2023-05-08T07:52:42;96549.41;;;21.34;24.98
68141;BME280;54941;52.220;104.306;2023-05-08T07:55:09;96553.69;;;20.92;25.45
68141;BME280;54941;52.220;104.306;2023-05-08T07:57:36;96549.59;;;21.01;25.19
68141;BME280;54941;52.220;104.306;2023-05-08T08:00:03;96551.03;;;21.07;24.26
68141;BME280;54941;52.220;104.306;2023-05-08T08:02:31;96546.53;;;20.47;23.94
68141;BME280;54941;52.220;104.306;2023-05-08T08:04:57;96539.56;;;20.59;23.96
68141;BME280;54941;52.220;104.306;2023-05-08T08:07:24;96537.22;;;20.68;23.77
68141;BME280;54941;52.220;104.306;2023-05-08T08:09:51;96532.56;;;20.56;25.07
68141;BME280;54941;52.220;104.306;2023-05-08T08:12:18;96528.34;;;20.52;25.76
68141;BME280;54941;52.220;104.306;2023-05-08T08:14:45;96527.88;;;20.60;25.32
68141;BME280;54941;52.220;104.306;2023-05-08T08:17:11;96524.13;;;20.78;23.72
68141;BME280;54941;52.220;104.306;2023-05-08T08:19:37;96525.75;;;20.81;23.33
68141;BME280;54941;52.220;104.306;2023-05-08T08:22:04;96523.41;;;21.05;23.02
68141;BME280;54941;52.220;104.306;2023-05-08T08:24:30;96525.31;;;21.03;22.89
68141;BME280;54941;52.220;104.306;2023-05-08T08:26:58;96523.91;;;21.11;21.89
68141;BME280;54941;52.220;104.306;2023-05-08T08:29:24;96523.22;;;20.63;22.32
68141;BME280;54941;52.220;104.306;2023-05-08T08:31:51;96524.69;;;20.83;22.57
68141;BME280;54941;52.220;104.306;2023-05-08T08:34:17;96514.34;;;20.77;23.01
68141;BME280;54941;52.220;104.306;2023-05-08T08:36:43;96517.13;;;20.60;23.58
68141;BME280;54941;52.220;104.306;2023-05-08T08:39:10;96518.53;;;20.35;23.89
68141;BME280;54941;52.220;104.306;2023-05-08T08:41:37;96514.41;;;20.46;23.48
68141;BME280;54941;52.220;104.306;2023-05-08T08:44:05;96510.78;;;20.47;23.83
68141;BME280;54941;52.220;104.306;2023-05-08T08:46:31;96509.28;;;20.57;23.47
68141;BME280;54941;52.220;104.306;2023-05-08T08:48:58;96503.19;;;20.69;23.38
68141;BME280;54941;52.220;104.306;2023-05-08T08:51:31;96506.69;;;20.55;23.57
68141;BME280;54941;52.220;104.306;2023-05-08T08:54:02;96495.03;;;20.71;23.22
68141;BME280;54941;52.220;104.306;2023-05-08T08:56:30;96497.78;;;20.85;22.50
68141;BME280;54941;52.220;104.306;2023-05-08T08:58:57;96488.63;;;20.43;23.51
68141;BME280;54941;52.220;104.306;2023-05-08T09:01:27;96488.06;;;20.36;23.67
68141;BME280;54941;52.220;104.306;2023-05-08T09:03:56;96498.66;;;20.39;24.02
68141;BME280;54941;52.220;104.306;2023-05-08T09:06:23;96495.19;;;20.22;24.44
68141;BME280;54941;52.220;104.306;2023-05-08T09:08:50;96492.22;;;20.58;23.85
68141;BME280;54941;52.220;104.306;2023-05-08T09:11:19;96490.16;;;20.31;24.08
68141;BME280;54941;52.220;104.306;2023-05-08T09:13:46;96494.44;;;20.20;23.86
68141;BME280;54941;52.220;104.306;2023-05-08T09:16:12;96501.69;;;20.02;24.11
68141;BME280;54941;52.220;104.306;2023-05-08T09:18:40;96489.16;;;20.18;23.63
68141;BME280;54941;52.220;104.306;2023-05-08T09:21:06;96485.84;;;20.13;23.64
68141;BME280;54941;52.220;104.306;2023-05-08T09:23:34;96478.63;;;20.15;23.89
68141;BME280;54941;52.220;104.306;2023-05-08T09:26:01;96473.22;;;20.31;23.79
68141;BME280;54941;52.220;104.306;2023-05-08T09:28:28;96478.84;;;20.10;23.36
68141;BME280;54941;52.220;104.306;2023-05-08T09:30:55;96482.09;;;19.86;23.62
68141;BME280;54941;52.220;104.306;2023-05-08T09:33:23;96479.03;;;20.07;23.38
68141;BME280;54941;52.220;104.306;2023-05-08T09:35:51;96478.19;;;20.07;22.71
68141;BME280;54941;52.220;104.306;2023-05-08T09:38:37;96481.91;;;19.73;22.28
68141;BME280;54941;52.220;104.306;2023-05-08T09:41:09;96476.03;;;19.82;22.30
68141;BME280;54941;52.220;104.306;2023-05-08T09:43:35;96477.50;;;19.72;21.91
68141;BME280;54941;52.220;104.306;2023-05-08T09:46:29;96471.66;;;19.48;22.58
68141;BME280;54941;52.220;104.306;2023-05-08T09:48:57;96488.50;;;19.34;22.34
68141;BME280;54941;52.220;104.306;2023-05-08T09:51:26;96475.09;;;19.34;22.50
68141;BME280;54941;52.220;104.306;2023-05-08T09:53:54;96486.97;;;19.13;22.29
68141;BME280;54941;52.220;104.306;2023-05-08T09:56:31;96482.00;;;19.22;22.47
68141;BME280;54941;52.220;104.306;2023-05-08T09:58:58;96492.41;;;18.94;22.41
68141;BME280;54941;52.220;104.306;2023-05-08T10:01:29;96498.63;;;18.60;22.57
68141;BME280;54941;52.220;104.306;2023-05-08T10:03:56;96487.84;;;18.44;22.72
68141;BME280;54941;52.220;104.306;2023-05-08T10:06:22;96495.13;;;18.23;22.78
68141;BME280;54941;52.220;104.306;2023-05-08T10:09:05;96494.69;;;18.32;22.54
68141;BME280;54941;52.220;104.306;2023-05-08T10:11:31;96493.66;;;18.35;22.39
68141;BME280;54941;52.220;104.306;2023-05-08T10:13:58;96486.69;;;18.14;22.48
68141;BME280;54941;52.220;104.306;2023-05-08T10:16:27;96493.59;;;18.00;22.54
68141;BME280;54941;52.220;104.306;2023-05-08T10:18:59;96487.31;;;18.01;22.77
68141;BME280;54941;52.220;104.306;2023-05-08T10:21:28;96494.19;;;17.88;22.76
68141;BME280;54941;52.220;104.306;2023-05-08T10:23:57;96504.88;;;17.88;22.92
68141;BME280;54941;52.220;104.306;2023-05-08T10:26:30;96487.28;;;17.84;22.88
68141;BME280;54941;52.220;104.306;2023-05-08T10:28:58;96487.63;;;17.76;22.97
68141;BME280;54941;52.220;104.306;2023-05-08T10:31:33;96489.00;;;17.85;22.87
68141;BME280;54941;52.220;104.306;2023-05-08T10:34:01;96488.44;;;17.60;22.91
68141;BME280;54941;52.220;104.306;2023-05-08T10:36:29;96483.59;;;17.49;23.17
68141;BME280;54941;52.220;104.306;2023-05-08T10:38:58;96485.88;;;17.38;23.35
68141;BME280;54941;52.220;104.306;2023-05-08T10:41:23;96485.88;;;17.19;23.09
68141;BME280;54941;52.220;104.306;2023-05-08T10:43:51;96491.84;;;17.24;23.39
68141;BME280;54941;52.220;104.306;2023-05-08T10:46:21;96497.91;;;16.88;23.32
68141;BME280;54941;52.220;104.306;2023-05-08T10:48:57;96491.78;;;16.86;23.50
68141;BME280;54941;52.220;104.306;2023-05-08T10:51:36;96492.13;;;16.79;23.63
68141;BME280;54941;52.220;104.306;2023-05-08T10:54:11;96489.78;;;16.71;23.67
68141;BME280;54941;52.220;104.306;2023-05-08T10:56:38;96496.19;;;16.67;23.66
68141;BME280;54941;52.220;104.306;2023-05-08T10:59:05;96502.78;;;16.58;23.83
68141;BME280;54941;52.220;104.306;2023-05-08T11:01:31;96493.34;;;16.50;23.59
68141;BME280;54941;52.220;104.306;2023-05-08T11:03:58;96503.94;;;16.31;23.71
68141;BME280;54941;52.220;104.306;2023-05-08T11:06:42;96505.78;;;16.29;23.83
68141;BME280;54941;52.220;104.306;2023-05-08T11:09:14;96504.00;;;16.29;23.95
68141;BME280;54941;52.220;104.306;2023-05-08T11:11:57;96500.97;;;16.17;24.23
68141;BME280;54941;52.220;104.306;2023-05-08T11:14:25;96499.31;;;16.14;24.31
68141;BME280;54941;52.220;104.306;2023-05-08T11:17:07;96496.94;;;16.07;24.25
68141;BME280;54941;52.220;104.306;2023-05-08T11:19:35;96491.31;;;16.14;24.32
68141;BME280;54941;52.220;104.306;2023-05-08T11:22:25;96502.66;;;15.97;24.66
68141;BME280;54941;52.220;104.306;2023-05-08T11:24:56;96495.34;;;16.02;24.60
68141;BME280;54941;52.220;104.306;2023-05-08T11:27:39;96502.34;;;16.05;24.70
68141;BME280;54941;52.220;104.306;2023-05-08T11:30:23;96501.13;;;15.92;24.65
68141;BME280;54941;52.220;104.306;2023-05-08T11:33:11;96505.94;;;15.82;24.99
68141;BME280;54941;52.220;104.306;2023-05-08T11:35:52;96502.97;;;15.90;24.92
68141;BME280;54941;52.220;104.306;2023-05-08T11:38:21;96508.38;;;15.88;24.96
68141;BME280;54941;52.220;104.306;2023-05-08T11:40:55;96503.47;;;15.78;25.40
68141;BME280;54941;52.220;104.306;2023-05-08T11:43:38;96518.41;;;15.82;25.11
68141;BME280;54941;52.220;104.306;2023-05-08T11:46:13;96510.03;;;15.69;25.36
68141;BME280;54941;52.220;104.306;2023-05-08T11:48:40;96514.94;;;15.80;25.13
68141;BME280;54941;52.220;104.306;2023-05-08T11:51:06;96517.16;;;15.68;25.11
68141;BME280;54941;52.220;104.306;2023-05-08T11:53:34;96517.94;;;15.70;25.22
68141;BME280;54941;52.220;104.306;2023-05-08T11:56:03;96522.91;;;15.56;25.29
68141;BME280;54941;52.220;104.306;2023-05-08T11:58:29;96526.44;;;15.57;25.27
68141;BME280;54941;52.220;104.306;2023-05-08T12:00:56;96527.78;;;15.45;25.65
68141;BME280;54941;52.220;104.306;2023-05-08T12:03:23;96530.72;;;15.37;25.63
68141;BME280;54941;52.220;104.306;2023-05-08T12:05:50;96522.75;;;15.37;25.72
68141;BME280;54941;52.220;104.306;2023-05-08T12:08:20;96520.88;;;15.39;25.54
68141;BME280;54941;52.220;104.306;2023-05-08T12:10:50;96532.47;;;15.38;25.90
68141;BME280;54941;52.220;104.306;2023-05-08T12:13:19;96520.28;;;15.33;25.77
68141;BME280;54941;52.220;104.306;2023-05-08T12:15:46;96525.19;;;15.20;26.09
68141;BME280;54941;52.220;104.306;2023-05-08T12:18:13;96529.31;;;15.29;25.82
68141;BME280;54941;52.220;104.306;2023-05-08T12:20:40;96533.06;;;15.23;25.84
68141;BME280;54941;52.220;104.306;2023-05-08T12:23:06;96531.66;;;15.13;25.88
68141;BME280;54941;52.220;104.306;2023-05-08T12:25:33;96530.78;;;15.12;25.94
68141;BME280;54941;52.220;104.306;2023-05-08T12:28:00;96543.63;;;15.01;26.05
68141;BME280;54941;52.220;104.306;2023-05-08T12:30:28;96538.75;;;14.89;26.40
68141;BME280;54941;52.220;104.306;2023-05-08T12:32:55;96550.47;;;14.83;26.31
68141;BME280;54941;52.220;104.306;2023-05-08T12:35:22;96545.47;;;14.74;26.40
68141;BME280;54941;52.220;104.306;2023-05-08T12:37:49;96552.84;;;14.66;26.42
68141;BME280;54941;52.220;104.306;2023-05-08T12:40:25;96538.75;;;14.64;26.35
68141;BME280;54941;52.220;104.306;2023-05-08T12:42:51;96553.22;;;14.55;26.53
68141;BME280;54941;52.220;104.306;2023-05-08T12:45:19;96550.63;;;14.54;26.25
68141;BME280;54941;52.220;104.306;2023-05-08T12:47:47;96553.59;;;14.43;26.49
68141;BME280;54941;52.220;104.306;2023-05-08T12:50:15;96556.53;;;14.36;26.70
68141;BME280;54941;52.220;104.306;2023-05-08T12:52:41;96559.03;;;14.14;27.38